Holland, Michigan
Current Conditions -  °F | °C
As of 2:53 AM on Tuesday 21 Oct 2014 (Local Time) from KBIV Reporting Station
Overcast Overcast  
Wind Chill: 47°   Ceiling: 1600
Heat Index: 49°   Visibility: 10mi
Dew Point: 42°   Wind: 6mph
Humidity: 77%   Direction: 350°N
Pressure: 29.98"   Gusts: NA
Location:  42.77°N, 86.1°W
Report Text: KBIV 210653Z AUTO 35005KT 10SM OVC016 09/06 A2998 RMK AO2 SLPNO T00940056
Loading
Personal Weather Stations






























Interactive Weather Map New forecast layout! Learn more

10-Day Weather Forecast

Advertisements
Track Severe Weather on mobile